Time;durP1;ratioP1;P1;durP2;ratioP2;P2;SDS_P1;SDS_P2;PMS_P1;PMS_P2;Temp;Humidity;BMP_temperature;BMP_pressure;BME280_temperature;BME280_humidity;BME280_pressure;Samples;Min_cycle;Max_cycle;Signal;HPM_P1;HPM_P2
2021/12/15 00:04:30;;;;;;;18.83;12.60;;;;;;;7.72;65.12;101284.47;10403193;28;20409;-67
2021/12/15 00:09:32;;;;;;;18.15;13.05;;;;;;;7.69;65.22;101279.38;10404155;28;20053;-67
2021/12/15 00:14:34;;;;;;;15.48;12.23;;;;;;;7.73;65.29;101289.66;10403896;28;20508;-68
2021/12/15 00:19:37;;;;;;;16.08;12.63;;;;;;;7.74;65.28;101283.56;10403318;28;20498;-67
2021/12/15 00:24:39;;;;;;;18.73;13.48;;;;;;;7.78;64.99;101282.56;10402105;28;20041;-67
2021/12/15 00:29:41;;;;;;;24.00;17.02;;;;;;;7.84;64.96;101282.41;10405624;28;20045;-67
2021/12/15 00:34:45;;;;;;;23.33;16.08;;;;;;;7.85;64.64;101284.09;10415836;28;20115;-67
2021/12/15 00:39:47;;;;;;;24.90;15.20;;;;;;;7.63;64.93;101293.38;10417618;28;20045;-67
2021/12/15 00:44:49;;;;;;;20.80;15.00;;;;;;;7.48;65.41;101291.19;10416739;28;20041;-67
2021/12/15 00:49:51;;;;;;;24.00;15.20;;;;;;;7.33;65.58;101286.38;10416997;28;20053;-67
2021/12/15 00:54:52;;;;;;;26.85;17.10;;;;;;;7.24;66.00;101272.75;10414781;28;20412;-67
2021/12/15 00:59:54;;;;;;;23.95;17.35;;;;;;;7.29;66.00;101278.66;10416379;28;20047;-67
2021/12/15 01:04:56;;;;;;;23.50;16.75;;;;;;;7.20;66.11;101287.59;10415442;28;20171;-68
2021/12/15 01:09:59;;;;;;;23.40;16.48;;;;;;;7.24;66.50;101294.41;10416852;28;20101;-67
2021/12/15 01:20:21;;;;;;;24.27;15.07;;;;;;;7.29;66.47;101295.13;10415292;28;20068;-67
2021/12/15 01:25:28;;;;;;;24.88;16.67;;;;;;;7.38;66.46;101296.66;10416091;28;20045;-67
2021/12/15 01:30:34;;;;;;;22.48;16.40;;;;;;;7.47;66.35;101299.06;10415053;28;20049;-67
2021/12/15 01:35:40;;;;;;;25.25;17.40;;;;;;;7.40;66.07;101300.94;10415871;28;20508;-67
2021/12/15 01:40:44;;;;;;;19.60;15.23;;;;;;;7.43;66.34;101300.84;10412873;28;20401;-67
2021/12/15 01:51:11;;;;;;;22.85;15.32;;;;;;;7.40;66.33;101300.94;10409088;28;20045;-67
2021/12/15 01:56:13;;;;;;;20.25;14.52;;;;;;;7.43;66.21;101303.47;10409520;28;20136;-67
2021/12/15 02:01:15;;;;;;;23.05;16.52;;;;;;;7.34;66.20;101308.91;10408876;28;20045;-67
2021/12/15 02:06:17;;;;;;;24.60;15.60;;;;;;;7.29;66.54;101313.34;10408136;28;20644;-67
2021/12/15 02:11:20;;;;;;;22.73;15.98;;;;;;;7.38;66.47;101302.75;10408245;28;20059;-67
2021/12/15 02:16:21;;;;;;;25.35;16.55;;;;;;;7.49;66.31;101308.50;10408133;28;20425;-67
2021/12/15 02:21:25;;;;;;;26.80;17.00;;;;;;;7.48;66.29;101313.75;10407488;28;20132;-67
2021/12/15 02:26:35;;;;;;;22.02;15.88;;;;;;;7.37;66.22;101311.41;10408108;28;20136;-67
2021/12/15 02:41:59;;;;;;;25.13;16.20;;;;;;;7.46;66.30;101307.75;10406202;28;20136;-67
2021/12/15 02:47:01;;;;;;;23.10;15.35;;;;;;;7.39;66.43;101304.44;10406985;28;20045;-67
2021/12/15 02:52:04;;;;;;;19.98;14.45;;;;;;;7.47;66.37;101297.28;10406440;28;20050;-66
2021/12/15 02:57:10;;;;;;;19.80;14.07;;;;;;;7.51;66.00;101298.09;10406281;28;20041;-67
2021/12/15 03:02:48;;;;;;;19.77;13.77;;;;;;;7.38;66.23;101304.47;10409000;28;20053;-66
2021/12/15 03:18:11;;;;;;;23.42;16.48;;;;;;;7.25;66.66;101300.44;10412368;28;20068;-66
2021/12/15 03:23:18;;;;;;;22.23;16.38;;;;;;;7.34;66.78;101301.09;10412563;28;20041;-67
2021/12/15 03:33:58;;;;;;;22.83;15.65;;;;;;;7.44;66.43;101305.19;10412480;28;20144;-66
2021/12/15 03:38:59;;;;;;;21.42;15.02;;;;;;;7.46;66.25;101300.78;10411253;28;20051;-67
2021/12/15 03:44:05;;;;;;;22.08;15.30;;;;;;;7.43;66.29;101300.84;10410824;28;20048;-66
2021/12/15 03:49:07;;;;;;;22.65;16.02;;;;;;;7.42;66.28;101304.38;10411157;28;20124;-66
2021/12/15 03:54:08;;;;;;;21.27;15.15;;;;;;;7.47;66.33;101304.25;10411228;28;20065;-67
2021/12/15 03:59:11;;;;;;;18.70;13.95;;;;;;;7.47;66.32;101302.50;10410558;28;20418;-67
2021/12/15 04:04:13;;;;;;;19.30;13.65;;;;;;;7.52;66.31;101308.44;10406955;28;20490;-67
2021/12/15 04:09:15;;;;;;;25.02;13.57;;;;;;;7.49;66.20;101310.28;10405110;28;20538;-66
2021/12/15 04:14:22;;;;;;;18.25;13.38;;;;;;;7.47;66.43;101312.06;10404543;28;20131;-67
2021/12/15 04:19:24;;;;;;;18.75;12.70;;;;;;;7.41;66.66;101304.38;10403091;28;20056;-67
2021/12/15 04:24:27;;;;;;;18.98;14.23;;;;;;;7.40;66.44;101311.34;10404049;28;20052;-67
2021/12/15 04:29:29;;;;;;;19.48;13.43;;;;;;;7.50;66.37;101310.22;10403219;28;20288;-67
2021/12/15 04:34:31;;;;;;;19.15;13.52;;;;;;;7.55;66.27;101312.72;10402621;28;20042;-67
2021/12/15 04:39:33;;;;;;;21.13;14.45;;;;;;;7.57;66.11;101303.13;10403417;28;20124;-66
2021/12/15 04:44:35;;;;;;;18.40;13.23;;;;;;;7.46;66.03;101313.81;10402262;28;20413;-66
2021/12/15 04:49:50;;;;;;;21.83;12.27;;;;;;;7.28;66.51;101314.25;10403590;28;20056;-66
2021/12/15 04:54:52;;;;;;;16.40;12.00;;;;;;;7.22;66.74;101306.59;10404229;28;20506;-67
2021/12/15 04:59:55;;;;;;;21.02;12.75;;;;;;;7.18;66.94;101313.59;10403080;28;20042;-67
2021/12/15 05:04:57;;;;;;;18.38;11.65;;;;;;;7.16;67.05;101314.56;10402329;28;20524;-67
2021/12/15 05:10:00;;;;;;;14.05;10.65;;;;;;;7.19;66.94;101317.94;10401580;28;20045;-67
2021/12/15 05:15:03;;;;;;;24.88;13.05;;;;;;;7.28;66.98;101322.06;10401610;28;20528;-67
2021/12/15 05:20:08;;;;;;;116.85;71.57;;;;;;;7.31;66.93;101321.97;10408467;28;20144;-67
2021/12/15 05:25:10;;;;;;;45.00;31.80;;;;;;;7.37;66.93;101328.78;10409551;28;20057;-67
2021/12/15 05:30:15;;;;;;;22.30;15.65;;;;;;;7.45;66.98;101326.88;10408206;28;20415;-67
2021/12/15 05:35:22;;;;;;;19.80;12.95;;;;;;;7.38;66.73;101328.75;10395644;28;20425;-67
2021/12/15 05:40:26;;;;;;;20.30;13.77;;;;;;;7.46;66.63;101334.63;10409013;28;20243;-67
2021/12/15 05:45:31;;;;;;;22.40;14.93;;;;;;;7.40;66.76;101342.59;10408284;28;20472;-67
2021/12/15 05:50:34;;;;;;;23.70;14.35;;;;;;;7.41;66.69;101338.22;10407521;28;20056;-67
2021/12/15 05:55:36;;;;;;;23.35;14.02;;;;;;;7.34;66.97;101352.28;10408573;28;20474;-67
2021/12/15 06:00:40;;;;;;;22.02;14.00;;;;;;;7.41;66.83;101359.03;10406984;28;20412;-67
2021/12/15 06:05:43;;;;;;;22.10;13.95;;;;;;;7.48;66.73;101371.03;10408211;28;20466;-67
2021/12/15 06:10:45;;;;;;;27.30;17.17;;;;;;;7.45;66.69;101374.56;10407159;28;20052;-68
2021/12/15 06:15:47;;;;;;;25.55;14.93;;;;;;;7.50;66.87;101377.06;10406800;28;20049;-67
2021/12/15 06:20:52;;;;;;;21.38;13.27;;;;;;;7.57;66.53;101389.88;10407000;28;20099;-68
2021/12/15 06:26:00;;;;;;;24.50;13.82;;;;;;;7.58;66.71;101385.53;10407918;28;20408;-67
2021/12/15 06:31:10;;;;;;;20.20;13.18;;;;;;;7.64;66.41;101387.97;10405826;28;20053;-67
2021/12/15 06:36:14;;;;;;;21.08;12.93;;;;;;;7.66;66.51;101394.88;10407730;28;20864;-67
2021/12/15 06:41:16;;;;;;;19.23;11.73;;;;;;;7.72;66.54;101402.53;10406471;28;20046;-67
2021/12/15 07:02:20;;;;;;;33.10;18.83;;;;;;;7.52;66.92;101423.00;10406131;28;20042;-68
2021/12/15 07:07:22;;;;;;;21.35;11.48;;;;;;;7.61;66.81;101417.53;10406035;28;20046;-68
2021/12/15 07:12:24;;;;;;;19.67;12.25;;;;;;;7.64;66.99;101414.88;10405223;28;20045;-68
2021/12/15 07:17:28;;;;;;;19.58;12.38;;;;;;;7.67;66.59;101404.38;10404463;28;20524;-68
2021/12/15 07:22:32;;;;;;;16.88;11.60;;;;;;;7.72;66.40;101412.94;10405458;28;20049;-67
2021/12/15 07:27:35;;;;;;;22.90;13.52;;;;;;;7.67;66.56;101420.00;10404115;28;20136;-68
2021/12/15 07:32:37;;;;;;;23.90;16.02;;;;;;;7.64;66.74;101422.69;10404369;28;20147;-67
2021/12/15 07:37:38;;;;;;;22.40;13.50;;;;;;;7.65;66.68;101434.81;10404490;28;20468;-68
2021/12/15 07:42:55;;;;;;;16.88;10.15;;;;;;;7.48;66.97;101436.97;10403864;28;20055;-67
2021/12/15 07:47:59;;;;;;;17.42;10.95;;;;;;;7.41;67.43;101432.78;10402948;28;20518;-68
2021/12/15 07:53:02;;;;;;;16.73;10.27;;;;;;;7.38;67.58;101438.06;10404281;28;20127;-67
2021/12/15 07:58:06;;;;;;;18.40;12.25;;;;;;;7.46;67.28;101440.50;10404728;28;20549;-68
2021/12/15 08:03:08;;;;;;;22.70;13.10;;;;;;;7.48;67.29;101444.78;10404744;28;20486;-68
2021/12/15 08:08:10;;;;;;;19.30;12.38;;;;;;;7.54;67.32;101447.25;10404246;28;20046;-68
2021/12/15 08:13:12;;;;;;;16.48;11.25;;;;;;;7.67;66.91;101440.84;10403488;28;20053;-68
2021/12/15 08:18:14;;;;;;;16.20;12.15;;;;;;;7.80;66.78;101436.19;10403810;28;20056;-68
2021/12/15 08:23:15;;;;;;;17.50;11.80;;;;;;;7.93;66.80;101435.88;10403973;28;20045;-68
2021/12/15 08:28:17;;;;;;;19.15;12.38;;;;;;;8.04;66.45;101452.06;10403224;28;20136;-68
2021/12/15 08:33:21;;;;;;;21.70;13.23;;;;;;;7.82;66.39;101453.50;10404351;28;20132;-68
2021/12/15 08:38:26;;;;;;;19.05;12.20;;;;;;;7.70;66.94;101451.19;10386323;28;20052;-68
2021/12/15 08:43:28;;;;;;;18.40;13.15;;;;;;;7.75;66.88;101453.69;10399934;28;20142;-68
2021/12/15 08:48:30;;;;;;;18.83;12.70;;;;;;;7.95;66.83;101451.44;10402829;28;20050;-72
2021/12/15 08:53:32;;;;;;;15.55;10.63;;;;;;;8.24;66.01;101453.34;10407584;28;20053;-72
2021/12/15 08:58:35;;;;;;;12.93;9.43;;;;;;;8.41;65.56;101465.03;10408691;28;20049;-73
2021/12/15 09:03:39;;;;;;;13.57;8.77;;;;;;;8.51;65.49;101448.25;10410833;28;20413;-73
2021/12/15 09:08:42;;;;;;;12.00;8.35;;;;;;;8.65;65.00;101459.16;10408958;28;20111;-74
2021/12/15 09:13:47;;;;;;;25.70;15.23;;;;;;;8.75;64.72;101458.00;10410623;28;20071;-73
2021/12/15 09:18:51;;;;;;;14.45;8.88;;;;;;;8.72;64.66;101462.44;10409117;28;20401;-73
2021/12/15 09:23:53;;;;;;;13.10;8.55;;;;;;;8.86;64.36;101462.91;10410108;28;20049;-73
2021/12/15 09:28:56;;;;;;;12.52;8.18;;;;;;;8.87;64.21;101461.16;10410254;28;20099;-71
2021/12/15 09:33:59;;;;;;;9.82;7.70;;;;;;;8.80;64.13;101461.34;10406239;28;20588;-72
2021/12/15 09:39:07;;;;;;;10.07;6.80;;;;;;;9.42;62.82;101463.88;10408392;28;20414;-71
2021/12/15 09:44:13;;;;;;;11.38;6.88;;;;;;;9.25;63.15;101464.38;10409923;28;20041;-71
2021/12/15 10:21:01;;;;;;;8.67;5.53;;;;;;;9.61;62.63;101458.00;10371154;28;20053;-73
2021/12/15 10:26:07;;;;;;;6.93;4.65;;;;;;;9.69;61.98;101463.00;10401398;28;20053;-73
2021/12/15 10:31:12;;;;;;;5.78;3.58;;;;;;;9.69;61.93;101460.41;10380511;28;20218;-73
2021/12/15 10:36:21;;;;;;;5.28;3.22;;;;;;;9.73;61.56;101450.72;10365382;28;20060;-73
2021/12/15 10:41:26;;;;;;;6.70;3.95;;;;;;;9.75;62.13;101443.69;10403943;28;20133;-73
2021/12/15 10:46:38;;;;;;;6.28;4.28;;;;;;;9.89;61.67;101449.31;10385120;28;20438;-73
2021/12/15 10:51:58;;;;;;;5.75;4.18;;;;;;;10.04;61.62;101451.41;10407918;28;20056;-72
2021/12/15 10:57:04;;;;;;;5.45;3.70;;;;;;;10.20;61.19;101450.00;10407086;28;20047;-72
2021/12/15 11:02:12;;;;;;;7.82;4.85;;;;;;;10.21;61.03;101451.72;10406730;28;20041;-73
2021/12/15 11:07:17;;;;;;;6.38;4.25;;;;;;;10.29;60.88;101447.06;10405856;28;20390;-72
2021/12/15 11:12:44;;;;;;;7.72;5.05;;;;;;;10.17;60.57;101440.50;10406696;28;20053;-72
2021/12/15 11:17:54;;;;;;;8.63;3.70;;;;;;;10.32;60.98;101439.09;10421352;28;20532;-74
2021/12/15 11:23:00;;;;;;;5.85;3.60;;;;;;;10.30;61.00;101448.75;10407242;28;20049;-72
2021/12/15 11:28:07;;;;;;;4.80;2.83;;;;;;;10.34;60.69;101439.91;10407072;28;20196;-72
2021/12/15 11:33:13;;;;;;;3.97;2.63;;;;;;;10.39;60.39;101436.25;10405872;28;20049;-73
2021/12/15 11:38:22;;;;;;;4.45;3.10;;;;;;;10.42;60.39;101432.63;10406676;28;20461;-73
2021/12/15 11:43:32;;;;;;;3.42;2.30;;;;;;;10.49;59.88;101424.53;10405714;28;20536;-72
2021/12/15 11:48:38;;;;;;;4.30;3.08;;;;;;;10.54;60.17;101416.53;10405767;28;20192;-72
2021/12/15 11:53:47;;;;;;;5.05;2.42;;;;;;;10.68;59.50;101419.50;10404566;28;20045;-72
2021/12/15 11:58:53;;;;;;;3.75;2.35;;;;;;;10.51;59.63;101419.25;10405082;28;20312;-72
2021/12/15 12:04:17;;;;;;;3.58;2.13;;;;;;;10.55;59.51;101417.38;10404928;28;20045;-72
2021/12/15 12:09:20;;;;;;;4.55;2.40;;;;;;;10.61;59.61;101412.78;10405457;28;20084;-73
2021/12/15 12:14:38;;;;;;;5.55;2.53;;;;;;;10.74;59.19;101406.19;10404691;28;20057;-72
2021/12/15 12:19:43;;;;;;;4.40;2.40;;;;;;;10.65;59.27;101409.13;10403433;28;20046;-72
2021/12/15 12:24:47;;;;;;;5.88;2.50;;;;;;;10.59;59.38;101417.22;10404312;28;20413;-72
2021/12/15 12:29:52;;;;;;;3.63;2.30;;;;;;;10.63;59.28;101421.41;10404738;28;20050;-72
2021/12/15 12:34:54;;;;;;;6.60;2.35;;;;;;;10.54;59.41;101403.47;10403803;28;20088;-73
2021/12/15 12:39:58;;;;;;;3.65;2.08;;;;;;;10.62;59.20;101406.66;10403703;28;20038;-72
2021/12/15 12:45:17;;;;;;;6.43;2.13;;;;;;;10.57;58.90;101405.09;10404645;28;20073;-72
2021/12/15 12:50:43;;;;;;;3.97;1.92;;;;;;;10.79;59.11;101399.00;10403791;28;20053;-72
2021/12/15 13:01:12;;;;;;;3.60;1.90;;;;;;;10.61;59.41;101397.06;10404541;28;20137;-72
2021/12/15 13:06:15;;;;;;;4.45;2.17;;;;;;;10.66;59.54;101389.94;10403531;28;20046;-72
2021/12/15 13:11:21;;;;;;;2.60;1.50;;;;;;;10.64;59.34;101391.75;10403690;28;20493;-73
2021/12/15 13:16:27;;;;;;;3.70;1.40;;;;;;;10.52;59.75;101386.09;10403343;28;20115;-72
2021/12/15 13:21:55;;;;;;;3.53;1.85;;;;;;;10.52;59.56;101382.56;10403241;28;20061;-72
2021/12/15 13:32:18;;;;;;;5.43;1.93;;;;;;;10.52;60.21;101381.75;10403893;28;20056;-72
2021/12/15 13:37:59;;;;;;;4.47;2.50;;;;;;;10.34;60.31;101385.00;10402040;28;20049;-73
2021/12/15 13:43:03;;;;;;;3.30;1.90;;;;;;;10.20;60.86;101376.78;10410342;28;20049;-72
2021/12/15 13:48:06;;;;;;;6.32;3.08;;;;;;;10.14;61.10;101384.84;10410337;28;20050;-73
2021/12/15 13:53:07;;;;;;;3.60;1.77;;;;;;;10.17;61.08;101385.63;10408466;28;20048;-72
2021/12/15 13:58:09;;;;;;;3.95;1.55;;;;;;;10.14;61.09;101377.00;10410420;28;20129;-73
2021/12/15 14:03:19;;;;;;;4.45;1.70;;;;;;;10.24;60.98;101371.41;10409658;28;20058;-72
2021/12/15 14:08:31;;;;;;;2.65;1.60;;;;;;;10.16;61.03;101377.78;10409584;28;20133;-73
2021/12/15 14:13:40;;;;;;;4.70;1.70;;;;;;;10.13;61.50;101367.47;10409459;28;20063;-72
2021/12/15 14:18:42;;;;;;;3.58;1.70;;;;;;;10.17;61.23;101369.06;10407182;28;20136;-73
2021/12/15 14:23:53;;;;;;;4.72;1.90;;;;;;;10.12;61.19;101376.19;10408612;28;20477;-73
2021/12/15 14:29:10;;;;;;;3.83;1.90;;;;;;;10.16;61.63;101372.56;10409800;28;20049;-73
2021/12/15 14:34:19;;;;;;;2.90;1.67;;;;;;;10.19;61.23;101377.72;10408354;28;20049;-72
2021/12/15 14:39:35;;;;;;;2.78;1.88;;;;;;;10.15;61.30;101376.09;10408005;28;20059;-72
2021/12/15 14:44:41;;;;;;;3.47;1.95;;;;;;;10.18;61.54;101373.38;10408821;28;20045;-73
2021/12/15 14:49:58;;;;;;;4.22;2.30;;;;;;;10.11;61.38;101369.28;10406218;28;20049;-72
2021/12/15 14:55:05;;;;;;;8.23;2.42;;;;;;;10.13;61.45;101378.78;10399227;28;20042;-72
2021/12/15 15:00:12;;;;;;;4.15;2.42;;;;;;;10.10;61.49;101388.47;10365761;28;20553;-72
2021/12/15 15:05:20;;;;;;;3.90;2.20;;;;;;;10.08;61.61;101387.66;10401486;28;20147;-72
2021/12/15 15:10:27;;;;;;;2.80;1.98;;;;;;;10.00;61.83;101400.16;10407415;28;20140;-72
2021/12/15 15:15:40;;;;;;;4.10;2.08;;;;;;;9.95;61.95;101404.69;10406932;28;20528;-72
2021/12/15 15:20:45;;;;;;;3.60;1.88;;;;;;;9.90;61.94;101402.22;10406198;28;20132;-72
2021/12/15 15:25:52;;;;;;;15.18;13.57;;;;;;;9.85;61.89;101408.53;10407000;28;20140;-72
2021/12/15 15:30:58;;;;;;;7.88;5.82;;;;;;;9.81;62.00;101417.38;10406909;28;20049;-72
2021/12/15 15:36:10;;;;;;;4.32;2.50;;;;;;;9.75;62.28;101414.97;10405246;28;20052;-72
2021/12/15 15:41:15;;;;;;;6.95;2.40;;;;;;;9.69;62.39;101417.78;10406200;28;20071;-72
2021/12/15 15:46:23;;;;;;;5.05;2.35;;;;;;;9.67;62.63;101414.34;10405149;28;20125;-72
2021/12/15 15:51:33;;;;;;;4.55;2.50;;;;;;;9.62;62.76;101422.31;10402957;28;20045;-72
2021/12/15 15:56:37;;;;;;;4.50;2.90;;;;;;;9.61;62.69;101424.06;10421138;28;20041;-72
2021/12/15 16:01:43;;;;;;;4.82;2.45;;;;;;;9.58;62.83;101426.75;10403181;28;20417;-73
2021/12/15 16:06:46;;;;;;;6.00;2.60;;;;;;;9.58;62.85;101437.19;10404751;28;20053;-73
2021/12/15 16:11:52;;;;;;;6.35;2.72;;;;;;;9.61;62.93;101433.63;10405231;28;20059;-72
2021/12/15 16:27:47;;;;;;;4.97;2.80;;;;;;;9.51;63.20;101448.75;10404971;28;20049;-72
2021/12/15 16:32:50;;;;;;;6.68;4.53;;;;;;;9.37;63.30;101443.09;10404237;28;20056;-74
2021/12/15 16:37:52;;;;;;;6.55;4.07;;;;;;;9.32;63.56;101446.78;10393580;28;20100;-73
2021/12/15 16:43:03;;;;;;;10.10;5.07;;;;;;;9.32;63.72;101438.94;10360012;28;20057;-74
2021/12/15 16:48:29;;;;;;;7.30;3.95;;;;;;;9.17;63.91;101448.09;10368782;28;20046;-73
2021/12/15 16:53:43;;;;;;;6.70;3.90;;;;;;;9.21;64.24;101456.66;10378773;28;20058;-74
2021/12/15 16:59:12;;;;;;;5.80;3.75;;;;;;;9.19;63.67;101467.16;10390563;28;20470;-74
2021/12/15 17:04:16;;;;;;;7.80;3.58;;;;;;;9.30;63.90;101472.06;10398465;28;20144;-73
2021/12/15 17:09:28;;;;;;;5.68;3.60;;;;;;;9.31;64.03;101472.00;10382666;28;20488;-73
2021/12/15 17:14:45;;;;;;;5.25;3.03;;;;;;;9.30;64.10;101466.84;10392915;28;20046;-73
2021/12/15 17:19:49;;;;;;;8.25;3.20;;;;;;;9.31;64.01;101474.63;10393618;28;20049;-74
2021/12/15 17:24:51;;;;;;;10.23;6.03;;;;;;;9.27;64.09;101482.59;10383672;28;20158;-74
2021/12/15 17:29:53;;;;;;;7.30;4.45;;;;;;;9.26;64.05;101488.72;10391908;28;20139;-74
2021/12/15 17:34:54;;;;;;;5.00;3.40;;;;;;;9.27;64.00;101485.19;10390282;28;20049;-74
2021/12/15 17:39:59;;;;;;;6.85;4.18;;;;;;;9.21;64.11;101496.69;10395517;28;20056;-73
2021/12/15 17:45:12;;;;;;;5.97;3.88;;;;;;;9.16;64.34;101492.47;10383738;28;20505;-74
2021/12/15 17:50:21;;;;;;;5.07;3.45;;;;;;;9.16;64.44;101495.94;10374929;28;20136;-73
2021/12/15 17:55:33;;;;;;;7.10;4.93;;;;;;;9.13;64.45;101490.84;10381165;28;20133;-74
2021/12/15 18:00:46;;;;;;;8.15;5.18;;;;;;;9.21;64.44;101493.22;10388402;28;20463;-73
2021/12/15 18:05:49;;;;;;;7.22;4.90;;;;;;;9.21;64.31;101501.03;10408275;28;20047;-73
2021/12/15 18:11:02;;;;;;;7.05;4.97;;;;;;;9.19;64.52;101500.22;10408282;28;20053;-74
2021/12/15 18:16:05;;;;;;;13.63;5.60;;;;;;;8.99;64.75;101516.47;10408545;28;20146;-72
2021/12/15 18:21:13;;;;;;;7.72;3.90;;;;;;;8.87;65.14;101522.03;10406154;28;20048;-73
2021/12/15 18:26:18;;;;;;;8.73;4.22;;;;;;;9.00;65.02;101522.53;10407847;28;20049;-73
2021/12/15 18:31:21;;;;;;;15.48;6.90;;;;;;;8.98;64.86;101525.19;10407250;28;20041;-72
2021/12/15 18:36:22;;;;;;;11.32;7.53;;;;;;;8.92;65.19;101525.34;10407723;28;20053;-73
2021/12/15 18:41:27;;;;;;;10.23;6.75;;;;;;;8.90;65.06;101529.75;10407524;28;20050;-73
2021/12/15 18:46:31;;;;;;;7.97;6.22;;;;;;;8.81;65.17;101540.47;10407066;28;20045;-74
2021/12/15 18:51:33;;;;;;;8.57;5.60;;;;;;;8.71;65.69;101538.97;10397055;28;20140;-74
2021/12/15 18:56:35;;;;;;;8.77;6.53;;;;;;;8.67;65.69;101540.81;10401786;28;20069;-73
2021/12/15 19:01:43;;;;;;;10.32;6.88;;;;;;;8.77;65.61;101554.50;10391869;28;20053;-74
2021/12/15 19:06:46;;;;;;;11.68;7.32;;;;;;;8.82;65.51;101558.69;10392493;28;20057;-72
2021/12/15 19:11:49;;;;;;;11.65;7.95;;;;;;;8.89;65.37;101564.59;10373238;28;20233;-73
2021/12/15 19:16:52;;;;;;;12.55;7.35;;;;;;;8.92;65.39;101563.63;10378277;28;20541;-73
2021/12/15 19:21:54;;;;;;;15.00;9.10;;;;;;;8.90;65.32;101566.28;10397129;28;20557;-74
2021/12/15 19:26:56;;;;;;;19.38;11.98;;;;;;;8.86;65.34;101567.28;10405717;28;20095;-73
2021/12/15 19:31:58;;;;;;;11.38;7.65;;;;;;;8.86;65.36;101564.66;10405488;28;20118;-73
2021/12/15 19:37:00;;;;;;;14.57;7.60;;;;;;;8.77;65.48;101567.53;10403493;28;20049;-72
2021/12/15 19:42:02;;;;;;;13.23;7.38;;;;;;;8.71;65.79;101555.50;10403331;28;20048;-73
2021/12/15 19:47:05;;;;;;;11.32;7.65;;;;;;;8.71;65.80;101563.31;10406024;28;20049;-72
2021/12/15 19:52:08;;;;;;;12.95;8.07;;;;;;;8.64;65.80;101564.38;10404395;28;20140;-73
2021/12/15 19:57:10;;;;;;;10.85;7.40;;;;;;;8.62;66.11;101568.78;10405317;28;20404;-73
2021/12/15 20:02:12;;;;;;;10.57;7.13;;;;;;;8.70;65.77;101573.78;10406170;28;20054;-73
2021/12/15 20:07:16;;;;;;;12.93;7.68;;;;;;;8.75;65.85;101571.94;10403187;28;20051;-74
2021/12/15 20:12:27;;;;;;;12.18;7.50;;;;;;;8.77;65.54;101570.97;10405417;28;20042;-73
2021/12/15 20:17:30;;;;;;;10.68;7.38;;;;;;;8.68;65.81;101581.66;10405336;28;20128;-73
2021/12/15 20:22:31;;;;;;;9.27;7.03;;;;;;;8.69;65.70;101575.53;10404852;28;20450;-73
2021/12/15 20:27:34;;;;;;;17.08;10.55;;;;;;;8.47;66.13;101581.34;10404320;28;20056;-74
2021/12/15 20:32:39;;;;;;;18.65;10.63;;;;;;;8.44;66.51;101586.66;10404708;28;20053;-72
2021/12/15 20:37:41;;;;;;;16.08;11.23;;;;;;;8.52;66.44;101595.13;10403871;28;20462;-75
2021/12/15 20:42:44;;;;;;;20.23;12.07;;;;;;;8.42;66.44;101599.72;10404491;28;20520;-72
2021/12/15 20:47:46;;;;;;;19.88;12.20;;;;;;;8.45;66.65;101596.16;10407300;28;20052;-74
2021/12/15 20:52:50;;;;;;;14.63;10.27;;;;;;;8.55;66.30;101597.63;10412293;28;20407;-73
2021/12/15 20:57:51;;;;;;;19.05;11.23;;;;;;;8.35;66.66;101605.09;10412122;28;20038;-73
2021/12/15 21:02:53;;;;;;;16.08;11.52;;;;;;;8.35;66.89;101613.78;10412412;28;20405;-73
2021/12/15 21:07:57;;;;;;;19.25;12.07;;;;;;;8.46;66.61;101610.94;10412149;28;20525;-72
2021/12/15 21:12:59;;;;;;;18.20;12.02;;;;;;;8.52;66.46;101611.63;10412197;28;20049;-73
2021/12/15 21:18:02;;;;;;;18.45;12.02;;;;;;;8.49;66.35;101610.84;10411059;28;20408;-73
2021/12/15 21:23:04;;;;;;;22.42;13.50;;;;;;;8.51;66.42;101606.44;10410458;28;20136;-73
2021/12/15 21:28:06;;;;;;;22.65;14.48;;;;;;;8.52;66.50;101610.78;10411660;28;20350;-73
2021/12/15 21:33:07;;;;;;;21.52;13.15;;;;;;;8.62;66.21;101601.81;10411188;28;20140;-73
2021/12/15 21:38:09;;;;;;;21.23;14.80;;;;;;;8.50;66.27;101607.34;10410781;28;20046;-73
2021/12/15 21:43:11;;;;;;;23.77;14.43;;;;;;;8.55;66.22;101608.06;10411085;28;20050;-73
2021/12/15 21:48:14;;;;;;;22.08;14.23;;;;;;;8.60;66.09;101604.47;10410972;28;20041;-73
2021/12/15 21:53:17;;;;;;;23.20;14.20;;;;;;;8.62;66.07;101607.91;10410377;28;20133;-74
2021/12/15 21:58:21;;;;;;;20.35;14.20;;;;;;;8.63;66.03;101608.72;10409120;28;20137;-74
2021/12/15 22:03:31;;;;;;;22.10;14.35;;;;;;;8.60;65.98;101611.44;10410108;28;20055;-73
2021/12/15 22:08:43;;;;;;;19.05;12.30;;;;;;;8.44;66.22;101607.50;10408174;28;20565;-73
2021/12/15 22:13:46;;;;;;;15.65;11.48;;;;;;;8.42;66.36;101599.72;10410156;28;20062;-74
2021/12/15 22:18:52;;;;;;;16.27;11.18;;;;;;;8.48;66.33;101601.31;10409890;28;20509;-74
2021/12/15 22:23:58;;;;;;;13.63;8.73;;;;;;;8.38;66.63;101615.47;10407265;28;20504;-74
2021/12/15 22:29:04;;;;;;;11.73;8.15;;;;;;;8.36;66.51;101612.91;10406068;28;20042;-66
2021/12/15 22:34:06;;;;;;;12.85;8.35;;;;;;;8.34;66.78;101611.22;10406119;28;20050;-66
2021/12/15 22:39:11;;;;;;;15.50;9.90;;;;;;;8.36;66.63;101607.69;10407909;28;20046;-66
2021/12/15 22:44:13;;;;;;;17.67;9.18;;;;;;;8.35;66.66;101618.13;10407463;28;20037;-66
2021/12/15 22:49:15;;;;;;;13.23;9.52;;;;;;;8.17;67.07;101618.56;10408082;28;20056;-66
2021/12/15 22:54:20;;;;;;;12.50;8.65;;;;;;;8.21;67.16;101615.00;10406712;28;20083;-66
2021/12/15 22:59:24;;;;;;;15.68;8.45;;;;;;;8.25;67.01;101622.72;10406125;28;20092;-66
2021/12/15 23:04:27;;;;;;;15.70;7.75;;;;;;;8.26;66.96;101618.38;10406910;28;20055;-66
2021/12/15 23:09:30;;;;;;;13.63;8.20;;;;;;;8.17;67.06;101624.66;10406413;28;20056;-66
2021/12/15 23:14:45;;;;;;;15.90;8.63;;;;;;;8.15;67.21;101630.78;10405446;28;20066;-66
2021/12/15 23:19:47;;;;;;;18.50;11.63;;;;;;;8.10;67.19;101627.41;10404955;28;20529;-66
2021/12/15 23:24:49;;;;;;;15.65;9.50;;;;;;;8.01;67.46;101624.13;10407187;28;20073;-66
2021/12/15 23:29:51;;;;;;;13.45;9.30;;;;;;;8.00;67.47;101631.94;10405527;28;20497;-67
